sensor_id;sensor_type;location;lat;lon;timestamp;P1;durP1;ratioP1;P2;durP2;ratioP2
3543;SDS011;1786;52.870;9.578;2022-08-01T00:00:03;17.43;;;10.50;;
3543;SDS011;1786;52.870;9.578;2022-08-01T00:02:37;9.70;;;8.70;;
3543;SDS011;1786;52.870;9.578;2022-08-01T00:05:05;11.30;;;8.87;;
3543;SDS011;1786;52.870;9.578;2022-08-01T00:07:33;14.57;;;9.57;;
3543;SDS011;1786;52.870;9.578;2022-08-01T00:10:01;26.70;;;10.20;;
3543;SDS011;1786;52.870;9.578;2022-08-01T00:12:29;10.60;;;9.50;;
3543;SDS011;1786;52.870;9.578;2022-08-01T00:14:56;16.80;;;7.67;;
3543;SDS011;1786;52.870;9.578;2022-08-01T00:17:23;7.63;;;7.00;;
3543;SDS011;1786;52.870;9.578;2022-08-01T00:19:49;7.87;;;7.07;;
3543;SDS011;1786;52.870;9.578;2022-08-01T00:22:16;6.90;;;6.20;;
3543;SDS011;1786;52.870;9.578;2022-08-01T00:24:43;5.73;;;5.20;;
3543;SDS011;1786;52.870;9.578;2022-08-01T00:27:10;13.93;;;6.40;;
3543;SDS011;1786;52.870;9.578;2022-08-01T00:29:37;5.23;;;4.90;;
3543;SDS011;1786;52.870;9.578;2022-08-01T00:32:24;4.40;;;4.10;;
3543;SDS011;1786;52.870;9.578;2022-08-01T00:34:50;4.10;;;2.93;;
3543;SDS011;1786;52.870;9.578;2022-08-01T00:37:17;2.80;;;2.60;;
3543;SDS011;1786;52.870;9.578;2022-08-01T00:39:44;2.90;;;2.70;;
3543;SDS011;1786;52.870;9.578;2022-08-01T00:42:11;3.03;;;2.93;;
3543;SDS011;1786;52.870;9.578;2022-08-01T00:44:39;2.93;;;2.73;;
3543;SDS011;1786;52.870;9.578;2022-08-01T00:47:06;2.57;;;2.47;;
3543;SDS011;1786;52.870;9.578;2022-08-01T00:49:33;3.07;;;2.87;;
3543;SDS011;1786;52.870;9.578;2022-08-01T00:52:02;3.60;;;2.57;;
3543;SDS011;1786;52.870;9.578;2022-08-01T00:54:32;4.13;;;2.83;;
3543;SDS011;1786;52.870;9.578;2022-08-01T00:56:59;5.80;;;2.83;;
3543;SDS011;1786;52.870;9.578;2022-08-01T00:59:26;3.10;;;2.90;;
3543;SDS011;1786;52.870;9.578;2022-08-01T01:01:54;3.57;;;3.47;;
3543;SDS011;1786;52.870;9.578;2022-08-01T01:04:21;3.83;;;3.43;;
3543;SDS011;1786;52.870;9.578;2022-08-01T01:07:24;3.77;;;3.40;;
3543;SDS011;1786;52.870;9.578;2022-08-01T01:10:00;6.37;;;4.80;;
3543;SDS011;1786;52.870;9.578;2022-08-01T01:12:41;6.90;;;6.33;;
3543;SDS011;1786;52.870;9.578;2022-08-01T01:15:30;6.30;;;5.83;;
3543;SDS011;1786;52.870;9.578;2022-08-01T01:18:09;6.50;;;6.10;;
3543;SDS011;1786;52.870;9.578;2022-08-01T01:20:41;6.70;;;5.80;;
3543;SDS011;1786;52.870;9.578;2022-08-01T01:29:06;11.63;;;7.37;;
3543;SDS011;1786;52.870;9.578;2022-08-01T01:31:44;8.67;;;8.07;;
3543;SDS011;1786;52.870;9.578;2022-08-01T01:34:17;9.30;;;7.10;;
3543;SDS011;1786;52.870;9.578;2022-08-01T01:36:46;11.83;;;8.17;;
3543;SDS011;1786;52.870;9.578;2022-08-01T01:39:14;8.83;;;8.27;;
3543;SDS011;1786;52.870;9.578;2022-08-01T01:41:43;9.03;;;8.43;;
3543;SDS011;1786;52.870;9.578;2022-08-01T01:44:11;9.30;;;8.47;;
3543;SDS011;1786;52.870;9.578;2022-08-01T01:46:39;9.50;;;8.83;;
3543;SDS011;1786;52.870;9.578;2022-08-01T01:49:08;11.43;;;10.23;;
3543;SDS011;1786;52.870;9.578;2022-08-01T01:51:36;10.47;;;9.67;;
3543;SDS011;1786;52.870;9.578;2022-08-01T01:54:06;11.43;;;10.50;;
3543;SDS011;1786;52.870;9.578;2022-08-01T01:56:34;11.97;;;10.97;;
3543;SDS011;1786;52.870;9.578;2022-08-01T01:59:21;14.40;;;12.20;;
3543;SDS011;1786;52.870;9.578;2022-08-01T02:01:52;13.00;;;11.50;;
3543;SDS011;1786;52.870;9.578;2022-08-01T02:04:32;18.53;;;11.20;;
3543;SDS011;1786;52.870;9.578;2022-08-01T02:07:02;13.80;;;11.73;;
3543;SDS011;1786;52.870;9.578;2022-08-01T02:09:29;13.10;;;11.93;;
3543;SDS011;1786;52.870;9.578;2022-08-01T02:11:58;12.00;;;10.97;;
3543;SDS011;1786;52.870;9.578;2022-08-01T02:14:36;13.20;;;12.00;;
3543;SDS011;1786;52.870;9.578;2022-08-01T02:17:06;14.40;;;11.70;;
3543;SDS011;1786;52.870;9.578;2022-08-01T02:19:37;16.30;;;11.87;;
3543;SDS011;1786;52.870;9.578;2022-08-01T02:22:06;13.43;;;12.10;;
3543;SDS011;1786;52.870;9.578;2022-08-01T02:27:24;11.10;;;10.03;;
3543;SDS011;1786;52.870;9.578;2022-08-01T02:29:58;11.20;;;10.00;;
3543;SDS011;1786;52.870;9.578;2022-08-01T02:32:31;11.17;;;10.10;;
3543;SDS011;1786;52.870;9.578;2022-08-01T02:35:04;11.83;;;10.40;;
3543;SDS011;1786;52.870;9.578;2022-08-01T02:37:36;12.33;;;11.07;;
3543;SDS011;1786;52.870;9.578;2022-08-01T02:40:10;10.60;;;9.53;;
3543;SDS011;1786;52.870;9.578;2022-08-01T02:42:41;15.40;;;10.10;;
3543;SDS011;1786;52.870;9.578;2022-08-01T02:45:11;13.80;;;9.87;;
3543;SDS011;1786;52.870;9.578;2022-08-01T02:47:39;12.53;;;10.77;;
3543;SDS011;1786;52.870;9.578;2022-08-01T02:50:08;14.50;;;10.90;;
3543;SDS011;1786;52.870;9.578;2022-08-01T02:52:38;12.90;;;11.60;;
3543;SDS011;1786;52.870;9.578;2022-08-01T02:55:08;12.87;;;11.03;;
3543;SDS011;1786;52.870;9.578;2022-08-01T02:57:36;13.33;;;11.93;;
3543;SDS011;1786;52.870;9.578;2022-08-01T03:00:22;14.67;;;12.10;;
3543;SDS011;1786;52.870;9.578;2022-08-01T03:02:50;13.10;;;11.80;;
3543;SDS011;1786;52.870;9.578;2022-08-01T03:05:21;18.30;;;13.30;;
3543;SDS011;1786;52.870;9.578;2022-08-01T03:07:50;14.30;;;12.90;;
3543;SDS011;1786;52.870;9.578;2022-08-01T03:10:19;16.43;;;13.93;;
3543;SDS011;1786;52.870;9.578;2022-08-01T03:12:48;14.80;;;12.00;;
3543;SDS011;1786;52.870;9.578;2022-08-01T03:15:16;15.17;;;13.30;;
3543;SDS011;1786;52.870;9.578;2022-08-01T03:17:45;14.37;;;12.83;;
3543;SDS011;1786;52.870;9.578;2022-08-01T03:20:15;19.33;;;12.10;;
3543;SDS011;1786;52.870;9.578;2022-08-01T03:22:44;20.93;;;13.10;;
3543;SDS011;1786;52.870;9.578;2022-08-01T03:25:12;13.30;;;12.00;;
3543;SDS011;1786;52.870;9.578;2022-08-01T03:27:40;28.20;;;13.70;;
3543;SDS011;1786;52.870;9.578;2022-08-01T03:30:10;11.10;;;9.70;;
3543;SDS011;1786;52.870;9.578;2022-08-01T03:32:37;11.83;;;9.70;;
3543;SDS011;1786;52.870;9.578;2022-08-01T03:35:04;15.13;;;9.10;;
3543;SDS011;1786;52.870;9.578;2022-08-01T03:37:50;12.17;;;9.07;;
3543;SDS011;1786;52.870;9.578;2022-08-01T03:40:47;8.00;;;7.30;;
3543;SDS011;1786;52.870;9.578;2022-08-01T03:43:36;6.47;;;5.83;;
3543;SDS011;1786;52.870;9.578;2022-08-01T03:46:11;11.27;;;6.57;;
3543;SDS011;1786;52.870;9.578;2022-08-01T03:48:41;8.73;;;5.73;;
3543;SDS011;1786;52.870;9.578;2022-08-01T03:51:11;5.07;;;4.70;;
3543;SDS011;1786;52.870;9.578;2022-08-01T03:53:40;4.27;;;4.07;;
3543;SDS011;1786;52.870;9.578;2022-08-01T03:56:08;5.70;;;5.13;;
3543;SDS011;1786;52.870;9.578;2022-08-01T03:58:38;4.70;;;4.17;;
3543;SDS011;1786;52.870;9.578;2022-08-01T04:01:06;5.53;;;4.60;;
3543;SDS011;1786;52.870;9.578;2022-08-01T04:03:41;7.63;;;5.37;;
3543;SDS011;1786;52.870;9.578;2022-08-01T04:06:08;6.23;;;4.53;;
3543;SDS011;1786;52.870;9.578;2022-08-01T04:08:37;10.43;;;5.07;;
3543;SDS011;1786;52.870;9.578;2022-08-01T04:11:04;7.03;;;6.07;;
3543;SDS011;1786;52.870;9.578;2022-08-01T04:13:31;11.03;;;6.73;;
3543;SDS011;1786;52.870;9.578;2022-08-01T04:16:03;9.63;;;7.33;;
3543;SDS011;1786;52.870;9.578;2022-08-01T04:18:30;10.50;;;7.37;;
3543;SDS011;1786;52.870;9.578;2022-08-01T04:20:58;8.30;;;6.73;;
3543;SDS011;1786;52.870;9.578;2022-08-01T04:23:24;9.83;;;8.93;;
3543;SDS011;1786;52.870;9.578;2022-08-01T04:25:53;9.17;;;8.37;;
3543;SDS011;1786;52.870;9.578;2022-08-01T04:28:21;10.07;;;8.70;;
3543;SDS011;1786;52.870;9.578;2022-08-01T04:30:49;13.90;;;8.30;;
3543;SDS011;1786;52.870;9.578;2022-08-01T04:33:18;12.07;;;9.33;;
3543;SDS011;1786;52.870;9.578;2022-08-01T04:35:46;10.00;;;9.00;;
3543;SDS011;1786;52.870;9.578;2022-08-01T04:38:30;9.87;;;8.87;;
3543;SDS011;1786;52.870;9.578;2022-08-01T04:40:59;9.23;;;8.43;;
3543;SDS011;1786;52.870;9.578;2022-08-01T04:43:35;10.17;;;9.10;;
3543;SDS011;1786;52.870;9.578;2022-08-01T04:46:05;9.10;;;8.40;;
3543;SDS011;1786;52.870;9.578;2022-08-01T04:48:34;9.73;;;8.97;;
3543;SDS011;1786;52.870;9.578;2022-08-01T04:51:03;9.33;;;8.27;;
3543;SDS011;1786;52.870;9.578;2022-08-01T04:53:30;8.20;;;7.50;;
3543;SDS011;1786;52.870;9.578;2022-08-01T04:55:58;8.27;;;7.47;;
3543;SDS011;1786;52.870;9.578;2022-08-01T04:58:25;7.37;;;6.87;;
3543;SDS011;1786;52.870;9.578;2022-08-01T05:00:51;6.70;;;6.20;;
3543;SDS011;1786;52.870;9.578;2022-08-01T05:03:18;6.90;;;6.27;;
3543;SDS011;1786;52.870;9.578;2022-08-01T05:05:45;6.63;;;6.03;;
3543;SDS011;1786;52.870;9.578;2022-08-01T05:08:11;6.60;;;6.10;;
3543;SDS011;1786;52.870;9.578;2022-08-01T05:10:38;8.93;;;6.47;;
3543;SDS011;1786;52.870;9.578;2022-08-01T05:13:05;7.07;;;5.73;;
3543;SDS011;1786;52.870;9.578;2022-08-01T05:15:32;8.77;;;6.93;;
3543;SDS011;1786;52.870;9.578;2022-08-01T05:18:03;7.70;;;6.17;;
3543;SDS011;1786;52.870;9.578;2022-08-01T05:20:29;6.10;;;5.60;;
3543;SDS011;1786;52.870;9.578;2022-08-01T05:22:56;6.33;;;5.70;;
3543;SDS011;1786;52.870;9.578;2022-08-01T05:25:24;6.50;;;5.90;;
3543;SDS011;1786;52.870;9.578;2022-08-01T05:28:11;7.27;;;6.50;;
3543;SDS011;1786;52.870;9.578;2022-08-01T05:30:44;8.67;;;7.63;;
3543;SDS011;1786;52.870;9.578;2022-08-01T05:33:11;12.73;;;8.23;;
3543;SDS011;1786;52.870;9.578;2022-08-01T05:35:37;8.30;;;7.60;;
3543;SDS011;1786;52.870;9.578;2022-08-01T05:38:14;7.70;;;7.00;;
3543;SDS011;1786;52.870;9.578;2022-08-01T05:40:41;8.03;;;7.40;;
3543;SDS011;1786;52.870;9.578;2022-08-01T05:43:07;7.83;;;7.13;;
3543;SDS011;1786;52.870;9.578;2022-08-01T05:45:34;7.33;;;6.93;;
3543;SDS011;1786;52.870;9.578;2022-08-01T05:48:01;9.87;;;8.50;;
3543;SDS011;1786;52.870;9.578;2022-08-01T05:50:27;7.03;;;6.53;;
3543;SDS011;1786;52.870;9.578;2022-08-01T05:52:54;6.87;;;6.17;;
3543;SDS011;1786;52.870;9.578;2022-08-01T05:55:21;6.80;;;6.20;;
3543;SDS011;1786;52.870;9.578;2022-08-01T05:57:48;6.23;;;5.43;;
3543;SDS011;1786;52.870;9.578;2022-08-01T06:00:14;10.43;;;5.10;;
3543;SDS011;1786;52.870;9.578;2022-08-01T06:02:42;5.60;;;4.67;;
3543;SDS011;1786;52.870;9.578;2022-08-01T06:05:10;5.50;;;4.60;;
3543;SDS011;1786;52.870;9.578;2022-08-01T06:07:38;5.00;;;4.60;;
3543;SDS011;1786;52.870;9.578;2022-08-01T06:10:06;5.40;;;3.63;;
3543;SDS011;1786;52.870;9.578;2022-08-01T06:12:34;4.80;;;4.40;;
3543;SDS011;1786;52.870;9.578;2022-08-01T06:15:02;5.00;;;3.63;;
3543;SDS011;1786;52.870;9.578;2022-08-01T06:17:29;3.33;;;3.13;;
3543;SDS011;1786;52.870;9.578;2022-08-01T06:19:56;3.77;;;3.10;;
3543;SDS011;1786;52.870;9.578;2022-08-01T06:22:23;3.27;;;2.97;;
3543;SDS011;1786;52.870;9.578;2022-08-01T06:24:51;3.80;;;3.20;;
3543;SDS011;1786;52.870;9.578;2022-08-01T06:27:18;2.70;;;2.60;;
3543;SDS011;1786;52.870;9.578;2022-08-01T06:29:47;2.93;;;2.77;;
3543;SDS011;1786;52.870;9.578;2022-08-01T06:32:20;2.70;;;2.50;;
3543;SDS011;1786;52.870;9.578;2022-08-01T06:34:53;3.23;;;2.87;;
3543;SDS011;1786;52.870;9.578;2022-08-01T06:37:20;3.07;;;2.83;;
3543;SDS011;1786;52.870;9.578;2022-08-01T06:39:47;2.53;;;2.43;;
3543;SDS011;1786;52.870;9.578;2022-08-01T06:42:15;2.20;;;2.00;;
3543;SDS011;1786;52.870;9.578;2022-08-01T06:44:42;2.17;;;2.07;;
3543;SDS011;1786;52.870;9.578;2022-08-01T06:47:08;7.83;;;1.63;;
3543;SDS011;1786;52.870;9.578;2022-08-01T06:49:35;1.43;;;1.43;;
3543;SDS011;1786;52.870;9.578;2022-08-01T06:52:02;6.10;;;1.50;;
3543;SDS011;1786;52.870;9.578;2022-08-01T06:54:30;2.63;;;1.70;;
3543;SDS011;1786;52.870;9.578;2022-08-01T06:56:57;1.40;;;1.30;;
3543;SDS011;1786;52.870;9.578;2022-08-01T06:59:23;2.97;;;1.30;;
3543;SDS011;1786;52.870;9.578;2022-08-01T07:01:50;2.60;;;1.60;;
3543;SDS011;1786;52.870;9.578;2022-08-01T07:04:17;2.07;;;1.50;;
3543;SDS011;1786;52.870;9.578;2022-08-01T07:06:44;4.73;;;1.40;;
3543;SDS011;1786;52.870;9.578;2022-08-01T07:09:10;3.70;;;1.60;;
3543;SDS011;1786;52.870;9.578;2022-08-01T07:11:40;4.70;;;2.00;;
3543;SDS011;1786;52.870;9.578;2022-08-01T07:14:07;4.50;;;1.67;;
3543;SDS011;1786;52.870;9.578;2022-08-01T07:16:34;2.53;;;1.47;;
3543;SDS011;1786;52.870;9.578;2022-08-01T07:19:01;3.30;;;1.60;;
3543;SDS011;1786;52.870;9.578;2022-08-01T07:21:27;2.43;;;1.53;;
3543;SDS011;1786;52.870;9.578;2022-08-01T07:24:10;4.80;;;1.33;;
3543;SDS011;1786;52.870;9.578;2022-08-01T07:26:44;2.57;;;1.40;;
3543;SDS011;1786;52.870;9.578;2022-08-01T07:29:25;3.13;;;1.20;;
3543;SDS011;1786;52.870;9.578;2022-08-01T07:41:34;2.80;;;1.47;;
3543;SDS011;1786;52.870;9.578;2022-08-01T07:44:21;1.43;;;1.20;;
3543;SDS011;1786;52.870;9.578;2022-08-01T07:46:48;5.50;;;1.80;;
3543;SDS011;1786;52.870;9.578;2022-08-01T07:49:14;4.90;;;2.10;;
3543;SDS011;1786;52.870;9.578;2022-08-01T07:51:41;4.10;;;1.33;;
3543;SDS011;1786;52.870;9.578;2022-08-01T07:54:27;5.17;;;1.67;;
3543;SDS011;1786;52.870;9.578;2022-08-01T07:56:59;2.33;;;1.40;;
3543;SDS011;1786;52.870;9.578;2022-08-01T07:59:27;4.23;;;1.37;;
3543;SDS011;1786;52.870;9.578;2022-08-01T08:01:53;8.10;;;1.63;;
3543;SDS011;1786;52.870;9.578;2022-08-01T08:04:21;6.73;;;2.30;;
3543;SDS011;1786;52.870;9.578;2022-08-01T08:06:47;8.67;;;2.23;;
3543;SDS011;1786;52.870;9.578;2022-08-01T08:09:15;7.13;;;2.23;;
3543;SDS011;1786;52.870;9.578;2022-08-01T08:11:45;9.90;;;2.23;;
3543;SDS011;1786;52.870;9.578;2022-08-01T08:14:14;10.43;;;2.60;;
3543;SDS011;1786;52.870;9.578;2022-08-01T08:16:41;8.43;;;2.80;;
3543;SDS011;1786;52.870;9.578;2022-08-01T08:19:09;12.03;;;2.53;;
3543;SDS011;1786;52.870;9.578;2022-08-01T08:21:36;10.10;;;2.27;;
3543;SDS011;1786;52.870;9.578;2022-08-01T08:24:04;9.73;;;2.53;;
3543;SDS011;1786;52.870;9.578;2022-08-01T08:26:56;9.23;;;2.30;;
3543;SDS011;1786;52.870;9.578;2022-08-01T08:29:25;5.90;;;2.20;;
3543;SDS011;1786;52.870;9.578;2022-08-01T08:31:53;9.20;;;2.07;;
3543;SDS011;1786;52.870;9.578;2022-08-01T08:34:22;7.57;;;2.00;;
3543;SDS011;1786;52.870;9.578;2022-08-01T08:36:49;7.97;;;2.17;;
3543;SDS011;1786;52.870;9.578;2022-08-01T08:39:17;5.40;;;1.93;;
3543;SDS011;1786;52.870;9.578;2022-08-01T08:41:45;9.40;;;2.20;;
3543;SDS011;1786;52.870;9.578;2022-08-01T08:44:15;2.80;;;1.80;;
3543;SDS011;1786;52.870;9.578;2022-08-01T08:46:44;12.20;;;2.70;;
3543;SDS011;1786;52.870;9.578;2022-08-01T08:49:21;11.50;;;2.57;;
3543;SDS011;1786;52.870;9.578;2022-08-01T08:51:50;13.07;;;3.10;;
3543;SDS011;1786;52.870;9.578;2022-08-01T08:54:20;11.53;;;2.90;;
3543;SDS011;1786;52.870;9.578;2022-08-01T08:56:57;10.63;;;2.93;;
3543;SDS011;1786;52.870;9.578;2022-08-01T08:59:25;11.50;;;2.30;;
3543;SDS011;1786;52.870;9.578;2022-08-01T09:01:52;5.83;;;2.13;;
3543;SDS011;1786;52.870;9.578;2022-08-01T09:04:22;8.93;;;2.00;;
3543;SDS011;1786;52.870;9.578;2022-08-01T09:06:52;5.30;;;2.10;;
3543;SDS011;1786;52.870;9.578;2022-08-01T09:09:19;6.80;;;2.70;;
3543;SDS011;1786;52.870;9.578;2022-08-01T09:11:45;10.53;;;2.33;;
3543;SDS011;1786;52.870;9.578;2022-08-01T09:14:23;3.73;;;2.30;;
3543;SDS011;1786;52.870;9.578;2022-08-01T09:19:37;10.97;;;3.33;;
3543;SDS011;1786;52.870;9.578;2022-08-01T09:22:11;9.57;;;3.40;;
3543;SDS011;1786;52.870;9.578;2022-08-01T09:24:39;6.10;;;2.63;;
3543;SDS011;1786;52.870;9.578;2022-08-01T09:27:20;4.70;;;2.03;;
3543;SDS011;1786;52.870;9.578;2022-08-01T09:29:51;8.20;;;2.67;;
3543;SDS011;1786;52.870;9.578;2022-08-01T09:32:29;6.50;;;2.60;;
3543;SDS011;1786;52.870;9.578;2022-08-01T09:40:56;7.77;;;2.90;;
3543;SDS011;1786;52.870;9.578;2022-08-01T09:43:25;8.67;;;3.53;;
3543;SDS011;1786;52.870;9.578;2022-08-01T09:45:54;9.33;;;2.60;;
3543;SDS011;1786;52.870;9.578;2022-08-01T09:48:23;9.63;;;2.93;;
3543;SDS011;1786;52.870;9.578;2022-08-01T09:50:54;7.00;;;2.80;;
3543;SDS011;1786;52.870;9.578;2022-08-01T09:53:46;8.70;;;2.70;;
3543;SDS011;1786;52.870;9.578;2022-08-01T09:56:19;9.57;;;2.87;;
3543;SDS011;1786;52.870;9.578;2022-08-01T09:58:48;12.07;;;3.10;;
3543;SDS011;1786;52.870;9.578;2022-08-01T10:01:24;14.23;;;3.00;;
3543;SDS011;1786;52.870;9.578;2022-08-01T10:06:48;15.70;;;3.33;;
3543;SDS011;1786;52.870;9.578;2022-08-01T10:09:32;13.97;;;2.93;;
3543;SDS011;1786;52.870;9.578;2022-08-01T10:12:06;11.30;;;2.70;;
3543;SDS011;1786;52.870;9.578;2022-08-01T10:14:42;9.67;;;2.93;;
3543;SDS011;1786;52.870;9.578;2022-08-01T10:17:16;9.23;;;3.30;;
3543;SDS011;1786;52.870;9.578;2022-08-01T10:19:45;8.43;;;3.43;;
3543;SDS011;1786;52.870;9.578;2022-08-01T10:22:16;10.03;;;2.67;;
3543;SDS011;1786;52.870;9.578;2022-08-01T10:24:45;6.87;;;2.83;;
3543;SDS011;1786;52.870;9.578;2022-08-01T10:27:14;9.13;;;2.63;;
3543;SDS011;1786;52.870;9.578;2022-08-01T10:29:51;9.37;;;2.63;;
3543;SDS011;1786;52.870;9.578;2022-08-01T10:32:42;16.00;;;2.67;;
3543;SDS011;1786;52.870;9.578;2022-08-01T10:35:16;7.60;;;2.30;;
3543;SDS011;1786;52.870;9.578;2022-08-01T10:38:03;10.63;;;2.50;;
3543;SDS011;1786;52.870;9.578;2022-08-01T10:40:31;11.57;;;3.40;;
3543;SDS011;1786;52.870;9.578;2022-08-01T10:42:58;13.40;;;3.90;;
3543;SDS011;1786;52.870;9.578;2022-08-01T10:45:25;9.70;;;2.47;;
3543;SDS011;1786;52.870;9.578;2022-08-01T10:48:00;10.90;;;2.60;;
3543;SDS011;1786;52.870;9.578;2022-08-01T10:50:33;20.03;;;2.90;;
3543;SDS011;1786;52.870;9.578;2022-08-01T10:53:10;11.63;;;3.60;;
3543;SDS011;1786;52.870;9.578;2022-08-01T10:55:49;8.20;;;2.67;;
3543;SDS011;1786;52.870;9.578;2022-08-01T10:58:34;11.37;;;3.27;;
3543;SDS011;1786;52.870;9.578;2022-08-01T11:06:35;7.70;;;2.30;;
3543;SDS011;1786;52.870;9.578;2022-08-01T11:12:02;7.33;;;2.67;;
3543;SDS011;1786;52.870;9.578;2022-08-01T11:20:15;10.60;;;2.43;;
3543;SDS011;1786;52.870;9.578;2022-08-01T11:28:28;15.63;;;2.57;;
3543;SDS011;1786;52.870;9.578;2022-08-01T11:41:39;6.83;;;2.03;;
3543;SDS011;1786;52.870;9.578;2022-08-01T11:44:11;13.13;;;2.20;;
3543;SDS011;1786;52.870;9.578;2022-08-01T11:47:03;6.33;;;1.93;;
3543;SDS011;1786;52.870;9.578;2022-08-01T11:52:15;12.83;;;2.30;;
3543;SDS011;1786;52.870;9.578;2022-08-01T11:54:44;6.13;;;1.90;;
3543;SDS011;1786;52.870;9.578;2022-08-01T11:57:12;10.80;;;2.07;;
3543;SDS011;1786;52.870;9.578;2022-08-01T11:59:59;9.10;;;3.67;;
3543;SDS011;1786;52.870;9.578;2022-08-01T12:02:37;12.00;;;2.70;;
3543;SDS011;1786;52.870;9.578;2022-08-01T12:05:08;8.13;;;2.00;;
3543;SDS011;1786;52.870;9.578;2022-08-01T12:07:39;7.27;;;1.87;;
3543;SDS011;1786;52.870;9.578;2022-08-01T12:10:08;9.60;;;2.07;;
3543;SDS011;1786;52.870;9.578;2022-08-01T12:13:00;9.80;;;3.00;;
3543;SDS011;1786;52.870;9.578;2022-08-01T12:15:29;5.70;;;2.10;;
3543;SDS011;1786;52.870;9.578;2022-08-01T12:17:58;5.57;;;1.73;;
3543;SDS011;1786;52.870;9.578;2022-08-01T12:20:27;7.70;;;2.33;;
3543;SDS011;1786;52.870;9.578;2022-08-01T12:22:58;8.77;;;1.90;;
3543;SDS011;1786;52.870;9.578;2022-08-01T12:25:27;5.90;;;1.90;;
3543;SDS011;1786;52.870;9.578;2022-08-01T12:27:54;5.07;;;2.10;;
3543;SDS011;1786;52.870;9.578;2022-08-01T12:30:22;6.10;;;1.83;;
3543;SDS011;1786;52.870;9.578;2022-08-01T12:32:51;7.90;;;2.23;;
3543;SDS011;1786;52.870;9.578;2022-08-01T12:35:20;15.40;;;2.50;;
3543;SDS011;1786;52.870;9.578;2022-08-01T12:37:51;11.10;;;2.40;;
3543;SDS011;1786;52.870;9.578;2022-08-01T12:40:19;7.67;;;2.53;;
3543;SDS011;1786;52.870;9.578;2022-08-01T12:42:51;10.30;;;2.60;;
3543;SDS011;1786;52.870;9.578;2022-08-01T12:45:21;12.90;;;2.10;;
3543;SDS011;1786;52.870;9.578;2022-08-01T12:47:54;4.23;;;1.57;;
3543;SDS011;1786;52.870;9.578;2022-08-01T12:50:24;6.43;;;2.17;;
3543;SDS011;1786;52.870;9.578;2022-08-01T12:52:54;9.47;;;2.17;;
3543;SDS011;1786;52.870;9.578;2022-08-01T12:55:21;5.13;;;1.80;;
3543;SDS011;1786;52.870;9.578;2022-08-01T12:58:07;6.43;;;2.53;;
3543;SDS011;1786;52.870;9.578;2022-08-01T13:00:42;6.00;;;2.23;;
3543;SDS011;1786;52.870;9.578;2022-08-01T13:03:12;9.67;;;2.10;;
3543;SDS011;1786;52.870;9.578;2022-08-01T13:08:15;8.73;;;2.23;;
3543;SDS011;1786;52.870;9.578;2022-08-01T13:10:46;8.30;;;2.30;;
3543;SDS011;1786;52.870;9.578;2022-08-01T13:13:14;8.23;;;1.90;;
3543;SDS011;1786;52.870;9.578;2022-08-01T13:16:02;13.13;;;2.00;;
3543;SDS011;1786;52.870;9.578;2022-08-01T13:18:32;10.63;;;2.67;;
3543;SDS011;1786;52.870;9.578;2022-08-01T13:21:16;5.40;;;2.13;;
3543;SDS011;1786;52.870;9.578;2022-08-01T13:24:00;9.43;;;2.70;;
3543;SDS011;1786;52.870;9.578;2022-08-01T13:29:11;20.60;;;2.60;;
3543;SDS011;1786;52.870;9.578;2022-08-01T13:31:40;5.67;;;1.90;;
3543;SDS011;1786;52.870;9.578;2022-08-01T13:34:07;4.73;;;1.90;;
3543;SDS011;1786;52.870;9.578;2022-08-01T13:36:34;7.47;;;2.17;;
3543;SDS011;1786;52.870;9.578;2022-08-01T13:39:02;6.20;;;2.03;;
3543;SDS011;1786;52.870;9.578;2022-08-01T13:41:48;7.97;;;1.90;;
3543;SDS011;1786;52.870;9.578;2022-08-01T13:44:15;5.17;;;1.80;;
3543;SDS011;1786;52.870;9.578;2022-08-01T13:46:42;15.30;;;3.17;;
3543;SDS011;1786;52.870;9.578;2022-08-01T13:49:16;7.93;;;2.33;;
3543;SDS011;1786;52.870;9.578;2022-08-01T13:51:44;9.80;;;2.40;;
3543;SDS011;1786;52.870;9.578;2022-08-01T13:54:12;7.70;;;1.77;;
3543;SDS011;1786;52.870;9.578;2022-08-01T13:56:39;10.03;;;2.23;;
3543;SDS011;1786;52.870;9.578;2022-08-01T13:59:05;15.93;;;2.33;;
3543;SDS011;1786;52.870;9.578;2022-08-01T14:01:33;10.23;;;2.77;;
3543;SDS011;1786;52.870;9.578;2022-08-01T14:04:00;10.53;;;2.80;;
3543;SDS011;1786;52.870;9.578;2022-08-01T14:06:27;6.07;;;2.10;;
3543;SDS011;1786;52.870;9.578;2022-08-01T14:08:54;9.97;;;1.73;;
3543;SDS011;1786;52.870;9.578;2022-08-01T14:11:21;8.60;;;1.77;;
3543;SDS011;1786;52.870;9.578;2022-08-01T14:13:47;5.83;;;2.13;;
3543;SDS011;1786;52.870;9.578;2022-08-01T14:16:15;7.33;;;2.20;;
3543;SDS011;1786;52.870;9.578;2022-08-01T14:18:43;3.23;;;1.60;;
3543;SDS011;1786;52.870;9.578;2022-08-01T14:21:10;8.43;;;1.73;;
3543;SDS011;1786;52.870;9.578;2022-08-01T14:23:37;9.83;;;2.93;;
3543;SDS011;1786;52.870;9.578;2022-08-01T14:26:04;8.50;;;1.87;;
3543;SDS011;1786;52.870;9.578;2022-08-01T14:28:38;8.40;;;2.00;;
3543;SDS011;1786;52.870;9.578;2022-08-01T14:31:06;6.80;;;2.17;;
3543;SDS011;1786;52.870;9.578;2022-08-01T14:33:34;5.87;;;2.03;;
3543;SDS011;1786;52.870;9.578;2022-08-01T14:36:01;6.67;;;2.20;;
3543;SDS011;1786;52.870;9.578;2022-08-01T14:38:49;5.33;;;1.87;;
3543;SDS011;1786;52.870;9.578;2022-08-01T14:41:15;5.70;;;2.10;;
3543;SDS011;1786;52.870;9.578;2022-08-01T14:43:42;5.83;;;1.87;;
3543;SDS011;1786;52.870;9.578;2022-08-01T14:46:09;7.67;;;1.87;;
3543;SDS011;1786;52.870;9.578;2022-08-01T14:48:36;7.37;;;1.80;;
3543;SDS011;1786;52.870;9.578;2022-08-01T14:51:03;1.30;;;1.20;;
3543;SDS011;1786;52.870;9.578;2022-08-01T14:53:33;10.37;;;2.23;;
3543;SDS011;1786;52.870;9.578;2022-08-01T14:56:02;5.47;;;2.00;;
3543;SDS011;1786;52.870;9.578;2022-08-01T14:58:30;6.00;;;2.27;;
3543;SDS011;1786;52.870;9.578;2022-08-01T15:00:56;13.93;;;1.90;;
3543;SDS011;1786;52.870;9.578;2022-08-01T15:03:25;4.20;;;2.50;;
3543;SDS011;1786;52.870;9.578;2022-08-01T15:05:52;6.60;;;2.00;;
3543;SDS011;1786;52.870;9.578;2022-08-01T15:08:19;8.33;;;1.83;;
3543;SDS011;1786;52.870;9.578;2022-08-01T15:10:45;5.60;;;1.47;;
3543;SDS011;1786;52.870;9.578;2022-08-01T15:13:12;7.70;;;1.73;;
3543;SDS011;1786;52.870;9.578;2022-08-01T15:15:38;5.90;;;1.80;;
3543;SDS011;1786;52.870;9.578;2022-08-01T15:18:05;13.00;;;2.10;;
3543;SDS011;1786;52.870;9.578;2022-08-01T15:20:32;8.03;;;1.73;;
3543;SDS011;1786;52.870;9.578;2022-08-01T15:22:59;3.90;;;1.60;;
3543;SDS011;1786;52.870;9.578;2022-08-01T15:25:26;9.00;;;1.73;;
3543;SDS011;1786;52.870;9.578;2022-08-01T15:28:10;9.43;;;2.27;;
3543;SDS011;1786;52.870;9.578;2022-08-01T15:30:38;10.30;;;2.00;;
3543;SDS011;1786;52.870;9.578;2022-08-01T15:33:05;16.97;;;1.87;;
3543;SDS011;1786;52.870;9.578;2022-08-01T15:35:32;2.80;;;1.70;;
3543;SDS011;1786;52.870;9.578;2022-08-01T15:37:59;8.23;;;2.57;;
3543;SDS011;1786;52.870;9.578;2022-08-01T15:40:26;7.07;;;1.97;;
3543;SDS011;1786;52.870;9.578;2022-08-01T15:42:54;7.73;;;1.87;;
3543;SDS011;1786;52.870;9.578;2022-08-01T15:45:21;13.87;;;2.43;;
3543;SDS011;1786;52.870;9.578;2022-08-01T15:48:08;13.87;;;2.20;;
3543;SDS011;1786;52.870;9.578;2022-08-01T15:50:35;6.97;;;1.57;;
3543;SDS011;1786;52.870;9.578;2022-08-01T15:53:04;3.73;;;1.70;;
3543;SDS011;1786;52.870;9.578;2022-08-01T15:55:31;11.50;;;1.70;;
3543;SDS011;1786;52.870;9.578;2022-08-01T15:57:58;5.03;;;1.90;;
3543;SDS011;1786;52.870;9.578;2022-08-01T16:00:24;5.17;;;1.77;;
3543;SDS011;1786;52.870;9.578;2022-08-01T16:02:59;4.90;;;1.90;;
3543;SDS011;1786;52.870;9.578;2022-08-01T16:05:25;4.60;;;2.20;;
3543;SDS011;1786;52.870;9.578;2022-08-01T16:07:52;5.43;;;2.13;;
3543;SDS011;1786;52.870;9.578;2022-08-01T16:10:27;5.30;;;2.30;;
3543;SDS011;1786;52.870;9.578;2022-08-01T16:12:55;9.40;;;2.77;;
3543;SDS011;1786;52.870;9.578;2022-08-01T16:15:21;7.70;;;2.30;;
3543;SDS011;1786;52.870;9.578;2022-08-01T16:18:01;2.37;;;1.60;;
3543;SDS011;1786;52.870;9.578;2022-08-01T16:20:28;7.43;;;1.90;;
3543;SDS011;1786;52.870;9.578;2022-08-01T16:22:55;5.30;;;1.90;;
3543;SDS011;1786;52.870;9.578;2022-08-01T16:25:22;11.07;;;2.00;;
3543;SDS011;1786;52.870;9.578;2022-08-01T16:27:48;7.77;;;2.07;;
3543;SDS011;1786;52.870;9.578;2022-08-01T16:30:15;4.80;;;1.93;;
3543;SDS011;1786;52.870;9.578;2022-08-01T16:32:42;11.20;;;2.43;;
3543;SDS011;1786;52.870;9.578;2022-08-01T16:35:16;17.27;;;2.50;;
3543;SDS011;1786;52.870;9.578;2022-08-01T16:37:43;4.33;;;1.90;;